sensor_id;sensor_type;location;lat;lon;timestamp;temperature;humidity
48535;DHT22;34323;52.022;5.686;2024-03-06T12:30:45;12.10;99.90
48535;DHT22;34323;52.022;5.686;2024-03-06T12:33:16;12.60;99.90
48535;DHT22;34323;52.022;5.686;2024-03-06T12:35:42;14.10;99.90
48535;DHT22;34323;52.022;5.686;2024-03-06T12:38:15;15.40;99.90
48535;DHT22;34323;52.022;5.686;2024-03-06T12:40:41;16.60;99.90
48535;DHT22;34323;52.022;5.686;2024-03-06T12:43:08;17.60;99.90
48535;DHT22;34323;52.022;5.686;2024-03-06T12:45:35;18.30;99.90
48535;DHT22;34323;52.022;5.686;2024-03-06T12:48:02;18.70;99.90
48535;DHT22;34323;52.022;5.686;2024-03-06T12:50:28;18.80;99.90
48535;DHT22;34323;52.022;5.686;2024-03-06T12:52:54;19.00;99.90
48535;DHT22;34323;52.022;5.686;2024-03-06T12:55:20;19.10;99.90
48535;DHT22;34323;52.022;5.686;2024-03-06T12:57:45;19.60;99.90
48535;DHT22;34323;52.022;5.686;2024-03-06T13:00:12;19.80;99.90
48535;DHT22;34323;52.022;5.686;2024-03-06T13:02:42;19.90;99.90
48535;DHT22;34323;52.022;5.686;2024-03-06T13:05:09;19.90;99.90
48535;DHT22;34323;52.022;5.686;2024-03-06T13:07:35;20.10;99.90
48535;DHT22;34323;52.022;5.686;2024-03-06T13:10:05;20.50;99.90
48535;DHT22;34323;52.022;5.686;2024-03-06T13:12:31;20.90;99.90
48535;DHT22;34323;52.022;5.686;2024-03-06T13:14:57;21.30;99.90
48535;DHT22;34323;52.022;5.686;2024-03-06T13:17:23;21.80;99.90
48535;DHT22;34323;52.022;5.686;2024-03-06T13:19:49;22.40;99.90
48535;DHT22;34323;52.022;5.686;2024-03-06T13:22:15;22.90;99.90
48535;DHT22;34323;52.022;5.686;2024-03-06T13:24:40;23.90;99.90
48535;DHT22;34323;52.022;5.686;2024-03-06T13:27:06;24.30;99.90
48535;DHT22;34323;52.022;5.686;2024-03-06T13:29:33;25.10;99.90
48535;DHT22;34323;52.022;5.686;2024-03-06T13:31:59;26.00;99.90
48535;DHT22;34323;52.022;5.686;2024-03-06T13:34:25;27.10;99.90
48535;DHT22;34323;52.022;5.686;2024-03-06T13:36:51;28.50;99.90
48535;DHT22;34323;52.022;5.686;2024-03-06T13:39:17;28.90;99.90
48535;DHT22;34323;52.022;5.686;2024-03-06T13:41:43;28.50;99.90
48535;DHT22;34323;52.022;5.686;2024-03-06T13:44:08;27.90;99.90
48535;DHT22;34323;52.022;5.686;2024-03-06T13:46:35;27.60;99.90
48535;DHT22;34323;52.022;5.686;2024-03-06T13:49:00;27.90;99.90
48535;DHT22;34323;52.022;5.686;2024-03-06T13:51:26;27.90;99.90
48535;DHT22;34323;52.022;5.686;2024-03-06T13:53:52;27.60;99.90
48535;DHT22;34323;52.022;5.686;2024-03-06T13:56:18;26.70;99.90
48535;DHT22;34323;52.022;5.686;2024-03-06T13:58:44;26.00;99.90
48535;DHT22;34323;52.022;5.686;2024-03-06T14:01:10;25.20;99.90
48535;DHT22;34323;52.022;5.686;2024-03-06T14:03:36;24.90;99.90
48535;DHT22;34323;52.022;5.686;2024-03-06T14:06:04;24.70;99.90
48535;DHT22;34323;52.022;5.686;2024-03-06T14:08:29;24.40;99.90
48535;DHT22;34323;52.022;5.686;2024-03-06T14:10:55;23.70;99.90
48535;DHT22;34323;52.022;5.686;2024-03-06T14:13:22;23.00;99.90
48535;DHT22;34323;52.022;5.686;2024-03-06T14:15:48;22.50;99.90
48535;DHT22;34323;52.022;5.686;2024-03-06T14:18:15;22.10;99.90
48535;DHT22;34323;52.022;5.686;2024-03-06T14:20:40;21.70;99.90
48535;DHT22;34323;52.022;5.686;2024-03-06T14:23:06;21.50;99.90
48535;DHT22;34323;52.022;5.686;2024-03-06T14:25:33;22.10;99.90
48535;DHT22;34323;52.022;5.686;2024-03-06T14:28:03;22.60;99.90
48535;DHT22;34323;52.022;5.686;2024-03-06T14:30:29;22.70;99.90
48535;DHT22;34323;52.022;5.686;2024-03-06T14:32:55;22.60;99.90
48535;DHT22;34323;52.022;5.686;2024-03-06T14:35:21;22.30;99.90
48535;DHT22;34323;52.022;5.686;2024-03-06T14:37:47;22.10;99.90
48535;DHT22;34323;52.022;5.686;2024-03-06T14:40:14;21.70;99.90
48535;DHT22;34323;52.022;5.686;2024-03-06T14:42:40;21.40;99.90
48535;DHT22;34323;52.022;5.686;2024-03-06T14:45:07;21.20;99.90
48535;DHT22;34323;52.022;5.686;2024-03-06T14:47:34;21.00;99.90
48535;DHT22;34323;52.022;5.686;2024-03-06T14:50:01;20.90;99.90
48535;DHT22;34323;52.022;5.686;2024-03-06T14:52:27;20.90;99.90
48535;DHT22;34323;52.022;5.686;2024-03-06T14:54:53;20.70;99.90
48535;DHT22;34323;52.022;5.686;2024-03-06T14:57:19;20.90;99.90
48535;DHT22;34323;52.022;5.686;2024-03-06T14:59:47;20.80;99.90
48535;DHT22;34323;52.022;5.686;2024-03-06T15:02:13;20.80;99.90
48535;DHT22;34323;52.022;5.686;2024-03-06T15:04:40;21.00;99.90
48535;DHT22;34323;52.022;5.686;2024-03-06T15:07:06;21.10;99.90
48535;DHT22;34323;52.022;5.686;2024-03-06T15:09:32;21.10;99.90
48535;DHT22;34323;52.022;5.686;2024-03-06T15:11:58;21.40;99.90
48535;DHT22;34323;52.022;5.686;2024-03-06T15:14:25;22.40;99.90
48535;DHT22;34323;52.022;5.686;2024-03-06T15:16:50;23.10;99.90
48535;DHT22;34323;52.022;5.686;2024-03-06T15:19:16;23.40;99.90
48535;DHT22;34323;52.022;5.686;2024-03-06T15:21:42;23.60;99.90
48535;DHT22;34323;52.022;5.686;2024-03-06T15:24:08;23.50;99.90
48535;DHT22;34323;52.022;5.686;2024-03-06T15:26:34;23.40;99.90
48535;DHT22;34323;52.022;5.686;2024-03-06T15:29:01;23.10;99.90
48535;DHT22;34323;52.022;5.686;2024-03-06T15:31:27;22.60;99.90
48535;DHT22;34323;52.022;5.686;2024-03-06T15:33:53;22.30;99.90
48535;DHT22;34323;52.022;5.686;2024-03-06T15:36:18;22.30;99.90
48535;DHT22;34323;52.022;5.686;2024-03-06T15:38:44;22.10;99.90
48535;DHT22;34323;52.022;5.686;2024-03-06T15:41:10;22.00;99.90
48535;DHT22;34323;52.022;5.686;2024-03-06T15:43:37;22.30;99.90
48535;DHT22;34323;52.022;5.686;2024-03-06T15:46:03;22.50;99.90
48535;DHT22;34323;52.022;5.686;2024-03-06T15:48:28;23.20;99.90
48535;DHT22;34323;52.022;5.686;2024-03-06T15:50:56;24.00;99.90
48535;DHT22;34323;52.022;5.686;2024-03-06T15:53:21;24.70;99.90
48535;DHT22;34323;52.022;5.686;2024-03-06T15:55:54;25.50;99.90
48535;DHT22;34323;52.022;5.686;2024-03-06T15:58:20;26.20;99.90
48535;DHT22;34323;52.022;5.686;2024-03-06T16:00:46;26.60;99.90
48535;DHT22;34323;52.022;5.686;2024-03-06T16:03:11;26.70;99.90
48535;DHT22;34323;52.022;5.686;2024-03-06T16:05:38;26.40;99.90
48535;DHT22;34323;52.022;5.686;2024-03-06T16:08:04;26.00;99.90
48535;DHT22;34323;52.022;5.686;2024-03-06T16:10:30;25.60;99.90
48535;DHT22;34323;52.022;5.686;2024-03-06T16:12:56;25.30;99.90
48535;DHT22;34323;52.022;5.686;2024-03-06T16:15:22;25.00;99.90
48535;DHT22;34323;52.022;5.686;2024-03-06T16:17:48;24.80;99.90
48535;DHT22;34323;52.022;5.686;2024-03-06T16:20:14;24.50;99.90
48535;DHT22;34323;52.022;5.686;2024-03-06T16:22:40;24.20;99.90
48535;DHT22;34323;52.022;5.686;2024-03-06T16:25:06;24.00;99.90
48535;DHT22;34323;52.022;5.686;2024-03-06T16:27:32;23.70;99.90
48535;DHT22;34323;52.022;5.686;2024-03-06T16:29:58;23.40;99.90
48535;DHT22;34323;52.022;5.686;2024-03-06T16:32:25;23.10;99.90
48535;DHT22;34323;52.022;5.686;2024-03-06T16:34:50;22.60;99.90
48535;DHT22;34323;52.022;5.686;2024-03-06T16:37:16;22.10;99.90
48535;DHT22;34323;52.022;5.686;2024-03-06T16:39:42;21.90;99.90
48535;DHT22;34323;52.022;5.686;2024-03-06T16:42:10;21.60;99.90
48535;DHT22;34323;52.022;5.686;2024-03-06T16:44:40;21.40;99.90
48535;DHT22;34323;52.022;5.686;2024-03-06T16:47:06;21.20;99.90
48535;DHT22;34323;52.022;5.686;2024-03-06T16:49:32;21.00;99.90
48535;DHT22;34323;52.022;5.686;2024-03-06T16:51:58;20.70;99.90
48535;DHT22;34323;52.022;5.686;2024-03-06T16:54:24;20.50;99.90
48535;DHT22;34323;52.022;5.686;2024-03-06T16:56:50;20.20;99.90
48535;DHT22;34323;52.022;5.686;2024-03-06T16:59:16;19.80;99.90
48535;DHT22;34323;52.022;5.686;2024-03-06T17:01:42;19.60;99.90
48535;DHT22;34323;52.022;5.686;2024-03-06T17:04:07;19.40;99.90
48535;DHT22;34323;52.022;5.686;2024-03-06T17:06:33;19.20;99.90
48535;DHT22;34323;52.022;5.686;2024-03-06T17:08:59;19.00;99.90
48535;DHT22;34323;52.022;5.686;2024-03-06T17:11:25;18.80;99.90
48535;DHT22;34323;52.022;5.686;2024-03-06T17:13:51;18.60;99.90
48535;DHT22;34323;52.022;5.686;2024-03-06T17:16:17;18.50;99.90
48535;DHT22;34323;52.022;5.686;2024-03-06T17:18:43;18.30;99.90
48535;DHT22;34323;52.022;5.686;2024-03-06T17:21:09;18.20;99.90
48535;DHT22;34323;52.022;5.686;2024-03-06T17:23:35;18.10;99.90
48535;DHT22;34323;52.022;5.686;2024-03-06T17:26:02;17.90;99.90
48535;DHT22;34323;52.022;5.686;2024-03-06T17:28:28;17.80;99.90
48535;DHT22;34323;52.022;5.686;2024-03-06T17:30:55;17.60;99.90
48535;DHT22;34323;52.022;5.686;2024-03-06T17:33:21;17.50;99.90
48535;DHT22;34323;52.022;5.686;2024-03-06T17:35:47;17.40;99.90
48535;DHT22;34323;52.022;5.686;2024-03-06T17:38:15;17.30;99.90
48535;DHT22;34323;52.022;5.686;2024-03-06T17:40:42;17.20;99.90
48535;DHT22;34323;52.022;5.686;2024-03-06T17:43:13;17.10;99.90
48535;DHT22;34323;52.022;5.686;2024-03-06T17:45:39;17.10;99.90
48535;DHT22;34323;52.022;5.686;2024-03-06T17:48:06;17.00;99.90
48535;DHT22;34323;52.022;5.686;2024-03-06T17:50:33;16.90;99.90
48535;DHT22;34323;52.022;5.686;2024-03-06T17:53:00;16.70;99.90
48535;DHT22;34323;52.022;5.686;2024-03-06T17:55:26;16.60;99.90
48535;DHT22;34323;52.022;5.686;2024-03-06T17:57:51;16.60;99.90
48535;DHT22;34323;52.022;5.686;2024-03-06T18:00:18;16.50;99.90
48535;DHT22;34323;52.022;5.686;2024-03-06T18:02:44;16.40;99.90
48535;DHT22;34323;52.022;5.686;2024-03-06T18:05:10;16.30;99.90
48535;DHT22;34323;52.022;5.686;2024-03-06T18:07:36;16.30;99.90
48535;DHT22;34323;52.022;5.686;2024-03-06T18:10:03;16.20;99.90
48535;DHT22;34323;52.022;5.686;2024-03-06T18:12:30;16.10;99.90
48535;DHT22;34323;52.022;5.686;2024-03-06T18:14:56;16.10;99.90
48535;DHT22;34323;52.022;5.686;2024-03-06T18:17:22;16.00;99.90
48535;DHT22;34323;52.022;5.686;2024-03-06T18:19:50;15.90;99.90
48535;DHT22;34323;52.022;5.686;2024-03-06T18:22:16;15.90;99.90
48535;DHT22;34323;52.022;5.686;2024-03-06T18:24:42;15.80;99.90
48535;DHT22;34323;52.022;5.686;2024-03-06T18:27:09;15.70;99.90
48535;DHT22;34323;52.022;5.686;2024-03-06T18:29:36;15.70;99.90
48535;DHT22;34323;52.022;5.686;2024-03-06T18:32:02;15.60;99.90
48535;DHT22;34323;52.022;5.686;2024-03-06T18:34:29;15.60;99.90
48535;DHT22;34323;52.022;5.686;2024-03-06T18:36:58;15.50;99.90
48535;DHT22;34323;52.022;5.686;2024-03-06T18:39:24;15.40;99.90
48535;DHT22;34323;52.022;5.686;2024-03-06T18:41:50;15.40;99.90
48535;DHT22;34323;52.022;5.686;2024-03-06T18:44:16;15.30;99.90
48535;DHT22;34323;52.022;5.686;2024-03-06T18:46:43;15.30;99.90
48535;DHT22;34323;52.022;5.686;2024-03-06T18:49:09;15.20;99.90
48535;DHT22;34323;52.022;5.686;2024-03-06T18:51:37;15.10;99.90
48535;DHT22;34323;52.022;5.686;2024-03-06T18:54:03;15.10;99.90
48535;DHT22;34323;52.022;5.686;2024-03-06T18:56:30;15.00;99.90
48535;DHT22;34323;52.022;5.686;2024-03-06T18:58:56;15.00;99.90
48535;DHT22;34323;52.022;5.686;2024-03-06T19:01:22;15.00;99.90
48535;DHT22;34323;52.022;5.686;2024-03-06T19:03:51;14.90;99.90
48535;DHT22;34323;52.022;5.686;2024-03-06T19:06:17;14.80;99.90
48535;DHT22;34323;52.022;5.686;2024-03-06T19:08:43;14.80;99.90
48535;DHT22;34323;52.022;5.686;2024-03-06T19:11:09;14.80;99.90
48535;DHT22;34323;52.022;5.686;2024-03-06T19:13:35;14.80;99.90
48535;DHT22;34323;52.022;5.686;2024-03-06T19:16:01;14.80;99.90
48535;DHT22;34323;52.022;5.686;2024-03-06T19:18:27;14.70;99.90
48535;DHT22;34323;52.022;5.686;2024-03-06T19:20:53;14.70;99.90
48535;DHT22;34323;52.022;5.686;2024-03-06T19:23:19;14.70;99.90
48535;DHT22;34323;52.022;5.686;2024-03-06T19:25:45;14.60;99.90
48535;DHT22;34323;52.022;5.686;2024-03-06T19:28:11;14.60;99.90
48535;DHT22;34323;52.022;5.686;2024-03-06T19:30:37;14.60;99.90
48535;DHT22;34323;52.022;5.686;2024-03-06T19:33:04;14.50;99.90
48535;DHT22;34323;52.022;5.686;2024-03-06T19:35:29;14.50;99.90
48535;DHT22;34323;52.022;5.686;2024-03-06T19:37:55;14.50;99.90
48535;DHT22;34323;52.022;5.686;2024-03-06T19:40:21;14.40;99.90
48535;DHT22;34323;52.022;5.686;2024-03-06T19:42:47;14.40;99.90
48535;DHT22;34323;52.022;5.686;2024-03-06T19:45:13;14.40;99.90
48535;DHT22;34323;52.022;5.686;2024-03-06T19:47:39;14.30;99.90
48535;DHT22;34323;52.022;5.686;2024-03-06T19:50:05;14.30;99.90
48535;DHT22;34323;52.022;5.686;2024-03-06T19:52:33;14.30;99.90
48535;DHT22;34323;52.022;5.686;2024-03-06T19:54:59;14.20;99.90
48535;DHT22;34323;52.022;5.686;2024-03-06T19:57:25;14.20;99.90
48535;DHT22;34323;52.022;5.686;2024-03-06T19:59:51;14.20;99.90
48535;DHT22;34323;52.022;5.686;2024-03-06T20:02:16;14.10;99.90
48535;DHT22;34323;52.022;5.686;2024-03-06T20:04:44;14.10;99.90
48535;DHT22;34323;52.022;5.686;2024-03-06T20:07:11;14.10;99.90
48535;DHT22;34323;52.022;5.686;2024-03-06T20:09:37;14.00;99.90
48535;DHT22;34323;52.022;5.686;2024-03-06T20:12:03;13.90;99.90
48535;DHT22;34323;52.022;5.686;2024-03-06T20:14:29;13.90;99.90
48535;DHT22;34323;52.022;5.686;2024-03-06T20:16:58;13.90;99.90
48535;DHT22;34323;52.022;5.686;2024-03-06T20:19:24;13.90;99.90
48535;DHT22;34323;52.022;5.686;2024-03-06T20:21:50;13.80;99.90
48535;DHT22;34323;52.022;5.686;2024-03-06T20:24:17;13.80;99.90
48535;DHT22;34323;52.022;5.686;2024-03-06T20:26:43;13.80;99.90
48535;DHT22;34323;52.022;5.686;2024-03-06T20:29:08;13.70;99.90
48535;DHT22;34323;52.022;5.686;2024-03-06T20:31:34;13.70;99.90
48535;DHT22;34323;52.022;5.686;2024-03-06T20:34:00;13.70;99.90
48535;DHT22;34323;52.022;5.686;2024-03-06T20:36:26;13.60;99.90
48535;DHT22;34323;52.022;5.686;2024-03-06T20:38:52;13.60;99.90
48535;DHT22;34323;52.022;5.686;2024-03-06T20:41:18;13.60;99.90
48535;DHT22;34323;52.022;5.686;2024-03-06T20:43:44;13.50;99.90
48535;DHT22;34323;52.022;5.686;2024-03-06T20:46:10;13.50;99.90
48535;DHT22;34323;52.022;5.686;2024-03-06T20:48:36;13.40;99.90
48535;DHT22;34323;52.022;5.686;2024-03-06T20:51:03;13.40;99.90
48535;DHT22;34323;52.022;5.686;2024-03-06T20:53:29;13.40;99.90
48535;DHT22;34323;52.022;5.686;2024-03-06T20:55:55;13.40;99.90
48535;DHT22;34323;52.022;5.686;2024-03-06T20:58:21;13.40;99.90
48535;DHT22;34323;52.022;5.686;2024-03-06T21:00:47;13.40;99.90
48535;DHT22;34323;52.022;5.686;2024-03-06T21:03:14;13.30;99.90
48535;DHT22;34323;52.022;5.686;2024-03-06T21:05:41;13.30;99.90
48535;DHT22;34323;52.022;5.686;2024-03-06T21:08:07;13.30;99.90
48535;DHT22;34323;52.022;5.686;2024-03-06T21:10:36;13.20;99.90
48535;DHT22;34323;52.022;5.686;2024-03-06T21:13:04;13.30;99.90
48535;DHT22;34323;52.022;5.686;2024-03-06T21:15:30;13.20;99.90
48535;DHT22;34323;52.022;5.686;2024-03-06T21:17:56;13.20;99.90
48535;DHT22;34323;52.022;5.686;2024-03-06T21:20:23;13.10;99.90
48535;DHT22;34323;52.022;5.686;2024-03-06T21:22:49;13.00;99.90
48535;DHT22;34323;52.022;5.686;2024-03-06T21:25:15;13.00;99.90
48535;DHT22;34323;52.022;5.686;2024-03-06T21:27:41;13.00;99.90
48535;DHT22;34323;52.022;5.686;2024-03-06T21:30:08;13.00;99.90
48535;DHT22;34323;52.022;5.686;2024-03-06T21:32:35;12.90;99.90
48535;DHT22;34323;52.022;5.686;2024-03-06T21:35:01;12.90;99.90
48535;DHT22;34323;52.022;5.686;2024-03-06T21:37:28;12.80;99.90
48535;DHT22;34323;52.022;5.686;2024-03-06T21:39:54;12.70;99.90
48535;DHT22;34323;52.022;5.686;2024-03-06T21:42:20;12.70;99.90
48535;DHT22;34323;52.022;5.686;2024-03-06T21:44:46;12.70;99.90
48535;DHT22;34323;52.022;5.686;2024-03-06T21:47:12;12.60;99.90
48535;DHT22;34323;52.022;5.686;2024-03-06T21:49:38;12.60;99.90
48535;DHT22;34323;52.022;5.686;2024-03-06T21:52:04;12.60;99.90
48535;DHT22;34323;52.022;5.686;2024-03-06T21:54:30;12.60;99.90
48535;DHT22;34323;52.022;5.686;2024-03-06T21:56:56;12.60;99.90
48535;DHT22;34323;52.022;5.686;2024-03-06T21:59:23;12.50;99.90
48535;DHT22;34323;52.022;5.686;2024-03-06T22:01:49;12.50;99.90
48535;DHT22;34323;52.022;5.686;2024-03-06T22:04:15;12.50;99.90
48535;DHT22;34323;52.022;5.686;2024-03-06T22:06:42;12.50;99.90
48535;DHT22;34323;52.022;5.686;2024-03-06T22:09:08;12.40;99.90
48535;DHT22;34323;52.022;5.686;2024-03-06T22:11:44;12.40;99.90
48535;DHT22;34323;52.022;5.686;2024-03-06T22:14:11;12.40;99.90
48535;DHT22;34323;52.022;5.686;2024-03-06T22:16:38;12.40;99.90
48535;DHT22;34323;52.022;5.686;2024-03-06T22:19:04;12.40;99.90
48535;DHT22;34323;52.022;5.686;2024-03-06T22:21:31;12.40;99.90
48535;DHT22;34323;52.022;5.686;2024-03-06T22:23:59;12.30;99.90
48535;DHT22;34323;52.022;5.686;2024-03-06T22:26:25;12.30;99.90
48535;DHT22;34323;52.022;5.686;2024-03-06T22:28:51;12.20;99.90
48535;DHT22;34323;52.022;5.686;2024-03-06T22:31:17;12.30;99.90
48535;DHT22;34323;52.022;5.686;2024-03-06T22:33:43;12.20;99.90
48535;DHT22;34323;52.022;5.686;2024-03-06T22:36:15;12.10;99.90
48535;DHT22;34323;52.022;5.686;2024-03-06T22:38:41;12.10;99.90
48535;DHT22;34323;52.022;5.686;2024-03-06T22:41:07;12.00;99.90
48535;DHT22;34323;52.022;5.686;2024-03-06T22:43:33;12.10;99.90
48535;DHT22;34323;52.022;5.686;2024-03-06T22:45:59;12.00;99.90
48535;DHT22;34323;52.022;5.686;2024-03-06T22:48:25;12.00;99.90
48535;DHT22;34323;52.022;5.686;2024-03-06T22:50:50;11.90;99.90
48535;DHT22;34323;52.022;5.686;2024-03-06T22:53:16;11.90;99.90
48535;DHT22;34323;52.022;5.686;2024-03-06T22:55:42;11.80;99.90
48535;DHT22;34323;52.022;5.686;2024-03-06T22:58:08;11.80;99.90
48535;DHT22;34323;52.022;5.686;2024-03-06T23:00:35;11.70;99.90
48535;DHT22;34323;52.022;5.686;2024-03-06T23:03:07;11.70;99.90
48535;DHT22;34323;52.022;5.686;2024-03-06T23:05:33;11.60;99.90
48535;DHT22;34323;52.022;5.686;2024-03-06T23:07:59;11.70;99.90
48535;DHT22;34323;52.022;5.686;2024-03-06T23:10:24;11.60;99.90
48535;DHT22;34323;52.022;5.686;2024-03-06T23:12:52;11.70;99.90
48535;DHT22;34323;52.022;5.686;2024-03-06T23:15:18;11.70;99.90
48535;DHT22;34323;52.022;5.686;2024-03-06T23:17:46;11.70;99.90
48535;DHT22;34323;52.022;5.686;2024-03-06T23:20:16;11.70;99.90
48535;DHT22;34323;52.022;5.686;2024-03-06T23:22:47;11.60;99.90
48535;DHT22;34323;52.022;5.686;2024-03-06T23:25:13;11.60;99.90
48535;DHT22;34323;52.022;5.686;2024-03-06T23:27:41;11.60;99.90
48535;DHT22;34323;52.022;5.686;2024-03-06T23:30:08;11.60;99.90
48535;DHT22;34323;52.022;5.686;2024-03-06T23:32:36;11.60;99.90
48535;DHT22;34323;52.022;5.686;2024-03-06T23:35:04;11.60;99.90
48535;DHT22;34323;52.022;5.686;2024-03-06T23:37:31;11.50;99.90
48535;DHT22;34323;52.022;5.686;2024-03-06T23:40:03;11.50;99.90
48535;DHT22;34323;52.022;5.686;2024-03-06T23:42:42;11.50;99.90
48535;DHT22;34323;52.022;5.686;2024-03-06T23:45:09;11.50;99.90
48535;DHT22;34323;52.022;5.686;2024-03-06T23:47:36;11.40;99.90
48535;DHT22;34323;52.022;5.686;2024-03-06T23:50:02;11.40;99.90
48535;DHT22;34323;52.022;5.686;2024-03-06T23:52:33;11.40;99.90
48535;DHT22;34323;52.022;5.686;2024-03-06T23:55:00;11.40;99.90
48535;DHT22;34323;52.022;5.686;2024-03-06T23:57:26;11.30;99.90
48535;DHT22;34323;52.022;5.686;2024-03-06T23:59:53;11.30;99.90
